Time;durP1;ratioP1;P1;durP2;ratioP2;P2;SDS_P1;SDS_P2;PMS_P1;PMS_P2;Temp;Humidity;BMP_temperature;BMP_pressure;BME280_temperature;BME280_humidity;BME280_pressure;Samples;Min_cycle;Max_cycle;Signal;HPM_P1;HPM_P2
2023/01/01 00:01:27;;;;;;;55.60;31.38;;;;;;;12.64;100.00;99003.78;5042012;28;20025;-74
2023/01/01 00:03:54;;;;;;;50.40;29.92;;;;;;;12.64;100.00;98992.09;5028804;28;20021;-74
2023/01/01 00:06:20;;;;;;;48.92;30.20;;;;;;;12.79;100.00;98997.28;5016319;28;20087;-74
2023/01/01 00:08:46;;;;;;;55.28;29.92;;;;;;;12.69;100.00;98993.13;5040475;28;20033;-72
2023/01/01 00:11:12;;;;;;;53.78;29.73;;;;;;;12.93;100.00;99007.03;5039422;28;20106;-73
2023/01/01 00:13:40;;;;;;;51.35;30.00;;;;;;;12.88;100.00;99004.97;5042339;28;20024;-73
2023/01/01 00:16:06;;;;;;;58.80;30.25;;;;;;;12.87;100.00;99002.47;5024131;28;20501;-74
2023/01/01 00:18:31;;;;;;;58.10;30.42;;;;;;;12.86;100.00;99009.81;5042130;28;20029;-74
2023/01/01 00:21:16;;;;;;;57.30;31.02;;;;;;;12.86;100.00;98996.22;5027893;28;20277;-74
2023/01/01 00:23:41;;;;;;;59.08;32.10;;;;;;;12.73;100.00;98998.94;5023336;28;20021;-74
2023/01/01 00:26:12;;;;;;;57.67;32.42;;;;;;;12.65;100.00;98997.31;5040815;28;20033;-74
2023/01/01 00:28:38;;;;;;;64.75;31.10;;;;;;;12.67;100.00;99011.50;5038502;28;20108;-73
2023/01/01 00:31:18;;;;;;;54.33;31.00;;;;;;;12.66;100.00;99000.88;5044618;28;20117;-73
2023/01/01 00:33:44;;;;;;;58.72;32.63;;;;;;;12.74;100.00;99000.63;5041922;28;20020;-74
2023/01/01 00:36:12;;;;;;;61.47;32.65;;;;;;;12.69;100.00;99008.56;5038779;28;20037;-74
2023/01/01 00:38:38;;;;;;;57.30;30.35;;;;;;;12.59;100.00;98987.28;5032070;28;20029;-74
2023/01/01 00:41:03;;;;;;;59.60;30.63;;;;;;;12.75;100.00;99013.16;5040361;28;20041;-73
2023/01/01 00:43:29;;;;;;;50.50;29.98;;;;;;;12.74;100.00;99008.78;5044336;28;20072;-73
2023/01/01 00:45:54;;;;;;;52.42;29.48;;;;;;;12.71;100.00;99007.31;5047193;28;20137;-73
2023/01/01 00:48:20;;;;;;;54.97;30.98;;;;;;;12.67;100.00;98997.09;5044439;28;20036;-74
2023/01/01 00:50:46;;;;;;;53.10;29.75;;;;;;;12.69;100.00;98995.84;5049497;28;20028;-74
2023/01/01 00:53:12;;;;;;;54.33;29.73;;;;;;;12.65;100.00;98993.75;5042408;28;20036;-74
2023/01/01 00:55:41;;;;;;;54.85;30.73;;;;;;;12.60;100.00;98991.69;5049752;28;20029;-73
2023/01/01 00:58:07;;;;;;;53.90;30.13;;;;;;;12.58;100.00;98996.50;5029329;28;20392;-74
2023/01/01 01:00:34;;;;;;;59.47;31.50;;;;;;;12.58;100.00;99009.22;5048156;28;20025;-73
2023/01/01 01:03:00;;;;;;;54.72;30.80;;;;;;;12.47;100.00;99016.09;5036942;28;20021;-74
2023/01/01 01:05:25;;;;;;;55.13;30.58;;;;;;;12.41;100.00;99015.06;5046630;28;20525;-74
2023/01/01 01:07:51;;;;;;;48.50;27.17;;;;;;;12.43;100.00;99007.56;5027457;28;20028;-74
2023/01/01 01:10:16;;;;;;;48.10;26.90;;;;;;;12.41;100.00;99004.22;5028486;28;20029;-74
2023/01/01 01:12:41;;;;;;;43.78;25.83;;;;;;;12.44;100.00;99009.25;5046261;28;20028;-74
2023/01/01 01:15:09;;;;;;;45.65;24.67;;;;;;;12.34;100.00;99003.41;5052112;28;20115;-74
2023/01/01 01:17:35;;;;;;;47.92;24.92;;;;;;;12.45;100.00;99005.47;5049104;28;20033;-74
2023/01/01 01:20:01;;;;;;;42.38;23.95;;;;;;;12.53;100.00;99004.44;5029820;28;20024;-74
2023/01/01 01:22:26;;;;;;;40.58;21.85;;;;;;;12.54;100.00;99005.25;5036089;28;20025;-73
2023/01/01 01:24:51;;;;;;;39.42;22.35;;;;;;;12.55;100.00;98990.63;5050847;28;20175;-74
2023/01/01 01:27:17;;;;;;;38.92;21.55;;;;;;;12.55;100.00;99004.19;5038244;28;20017;-74
2023/01/01 01:29:42;;;;;;;41.20;20.65;;;;;;;12.50;100.00;98986.69;5030324;28;20086;-73
2023/01/01 01:32:09;;;;;;;39.17;19.60;;;;;;;12.55;100.00;99004.19;5045893;28;20033;-73
2023/01/01 01:34:34;;;;;;;33.60;19.35;;;;;;;12.49;100.00;99001.28;5038256;28;20029;-73
2023/01/01 01:37:00;;;;;;;36.08;20.35;;;;;;;12.46;100.00;98995.47;5038684;28;20112;-73
2023/01/01 01:39:25;;;;;;;34.97;19.05;;;;;;;12.47;100.00;98989.84;5029239;28;20569;-75
2023/01/01 01:41:50;;;;;;;32.97;18.60;;;;;;;12.47;100.00;98997.13;5042540;28;20025;-74
2023/01/01 01:44:54;;;;;;;34.90;18.95;;;;;;;12.49;100.00;99006.72;5050031;28;20418;-73
2023/01/01 01:47:22;;;;;;;32.95;16.45;;;;;;;12.45;100.00;99013.63;5046277;28;20041;-76
2023/01/01 01:50:12;;;;;;;29.45;15.93;;;;;;;12.51;100.00;98998.38;5041202;28;20040;-73
2023/01/01 01:52:43;;;;;;;28.33;14.82;;;;;;;12.63;100.00;99014.88;5037206;28;20530;-74
2023/01/01 01:55:09;;;;;;;32.10;15.02;;;;;;;12.72;100.00;99017.13;5044913;28;20045;-73
2023/01/01 01:57:37;;;;;;;27.63;15.35;;;;;;;12.56;100.00;99022.19;5033616;28;20439;-73
2023/01/01 02:00:03;;;;;;;26.48;14.75;;;;;;;12.59;100.00;99019.84;5044146;28;20028;-74
2023/01/01 02:02:44;;;;;;;25.65;13.13;;;;;;;12.58;100.00;99012.78;5040497;28;20050;-73
2023/01/01 02:05:10;;;;;;;23.20;12.75;;;;;;;12.53;100.00;99012.56;5023936;28;20053;-73
2023/01/01 02:07:35;;;;;;;25.02;12.60;;;;;;;12.63;100.00;99017.56;5040283;28;20029;-74
2023/01/01 02:10:02;;;;;;;22.95;12.90;;;;;;;12.59;100.00;99016.31;5040534;28;20024;-73
2023/01/01 02:12:27;;;;;;;26.50;13.20;;;;;;;12.41;100.00;99004.22;5046642;28;20394;-73
2023/01/01 02:14:53;;;;;;;21.80;11.07;;;;;;;12.46;100.00;99012.56;5023766;28;20029;-75
2023/01/01 02:17:27;;;;;;;22.90;11.52;;;;;;;12.36;100.00;99020.28;5049368;28;20036;-74
2023/01/01 02:20:11;;;;;;;20.63;10.98;;;;;;;12.36;100.00;99025.72;5035732;28;20026;-74
2023/01/01 02:22:55;;;;;;;19.80;9.43;;;;;;;12.28;100.00;99029.47;5041794;28;20460;-73
2023/01/01 02:26:09;;;;;;;21.02;10.95;;;;;;;12.30;100.00;99039.31;5044870;28;20047;-73
2023/01/01 02:28:51;;;;;;;21.63;10.25;;;;;;;12.33;100.00;99033.47;5005121;28;20719;-73
2023/01/01 02:31:23;;;;;;;16.92;8.98;;;;;;;12.43;100.00;99042.00;5043478;28;20033;-74
2023/01/01 02:33:51;;;;;;;18.75;8.95;;;;;;;12.49;100.00;99038.44;5041937;28;20454;-74
2023/01/01 02:36:19;;;;;;;17.25;8.93;;;;;;;12.42;100.00;99022.19;5029199;28;20072;-75
2023/01/01 02:38:49;;;;;;;17.27;8.65;;;;;;;12.28;100.00;99025.94;5040812;28;20021;-73
2023/01/01 02:41:29;;;;;;;14.07;8.40;;;;;;;12.24;100.00;99024.69;5043998;28;20028;-74
2023/01/01 02:43:55;;;;;;;18.33;8.50;;;;;;;12.31;100.00;99036.38;5035144;28;20145;-74
2023/01/01 02:46:21;;;;;;;16.75;8.00;;;;;;;12.28;100.00;99025.94;5040759;28;20115;-75
2023/01/01 02:48:51;;;;;;;13.60;7.97;;;;;;;12.32;100.00;99035.34;5043542;28;20076;-73
2023/01/01 02:51:38;;;;;;;12.05;7.13;;;;;;;12.35;100.00;99040.34;5030510;28;20075;-74
2023/01/01 02:54:18;;;;;;;15.73;7.60;;;;;;;12.41;100.00;99044.09;5040486;28;20025;-74
2023/01/01 02:56:59;;;;;;;14.13;7.28;;;;;;;12.34;100.00;99021.53;5051472;28;20678;-73
2023/01/01 03:02:56;;;;;;;14.70;7.10;;;;;;;12.64;100.00;99038.25;5036736;28;20032;-74
2023/01/01 03:06:21;;;;;;;12.70;6.53;;;;;;;12.65;100.00;99034.47;5040652;28;20037;-74
2023/01/01 03:08:33;;;;;;;12.30;6.22;;;;;;;12.56;100.00;99009.44;5035810;28;20028;-74
2023/01/01 03:11:07;;;;;;;13.68;7.32;;;;;;;12.71;100.00;99030.94;5038127;28;20033;-75
2023/01/01 03:13:47;;;;;;;10.68;6.60;;;;;;;12.71;100.00;99025.50;5036050;28;20028;-74
2023/01/01 03:16:42;;;;;;;14.55;7.07;;;;;;;12.84;100.00;99043.66;5033609;28;20205;-73
2023/01/01 03:19:10;;;;;;;19.80;7.13;;;;;;;12.88;100.00;99034.00;5037113;28;20048;-75
2023/01/01 03:22:02;;;;;;;12.88;6.70;;;;;;;12.88;100.00;99051.13;5034315;28;20035;-74
2023/01/01 03:24:35;;;;;;;13.80;6.45;;;;;;;12.93;100.00;99040.47;5081919;22;20112;-72
2023/01/01 03:27:11;;;;;;;11.43;6.60;;;;;;;12.96;100.00;99043.81;5064291;28;20024;-72
2023/01/01 03:29:40;;;;;;;11.18;5.88;;;;;;;13.02;100.00;99042.94;5072406;28;20080;-72
2023/01/01 03:32:14;;;;;;;13.02;6.28;;;;;;;12.98;100.00;99053.41;5087742;28;20057;-71
2023/01/01 03:34:46;;;;;;;11.38;5.72;;;;;;;12.91;100.00;99049.88;5074762;28;20052;-71
2023/01/01 03:37:21;;;;;;;12.73;5.72;;;;;;;12.91;100.00;99055.31;5053708;28;20025;-72
2023/01/01 03:39:50;;;;;;;9.13;5.20;;;;;;;12.99;100.00;99063.22;5067443;28;20024;-71
2023/01/01 03:42:33;;;;;;;10.65;5.93;;;;;;;12.91;100.00;99079.75;5088505;28;20087;-71
2023/01/01 03:45:37;;;;;;;10.70;5.97;;;;;;;12.82;100.00;99065.56;5078623;28;20128;-71
2023/01/01 03:48:04;;;;;;;10.85;5.55;;;;;;;12.76;100.00;99073.72;5055196;28;20112;-71
2023/01/01 03:50:44;;;;;;;11.05;5.72;;;;;;;12.75;100.00;99069.34;5051082;28;20029;-71
2023/01/01 03:53:24;;;;;;;11.25;5.55;;;;;;;12.62;100.00;99071.00;5070641;28;20024;-71
2023/01/01 03:56:16;;;;;;;14.70;5.70;;;;;;;12.58;100.00;99074.38;5069254;28;20033;-72
2023/01/01 03:58:52;;;;;;;12.13;5.72;;;;;;;12.49;100.00;99077.28;5059698;28;20050;-71
2023/01/01 04:01:39;;;;;;;9.70;5.30;;;;;;;12.39;100.00;99079.59;5069759;28;20084;-71
2023/01/01 04:04:06;;;;;;;10.63;4.97;;;;;;;12.45;100.00;99075.22;5070916;28;20542;-71
2023/01/01 04:06:33;;;;;;;7.85;3.90;;;;;;;12.58;100.00;99066.22;5068315;28;20028;-71
2023/01/01 04:09:00;;;;;;;7.28;4.57;;;;;;;12.60;100.00;99040.56;5055016;28;20002;-71
2023/01/01 04:14:25;;;;;;;11.73;4.97;;;;;;;12.64;100.00;99057.25;5070800;28;20063;-71
2023/01/01 04:16:51;;;;;;;10.27;4.40;;;;;;;12.67;100.00;99062.25;5048498;28;20115;-71
2023/01/01 04:19:16;;;;;;;10.63;4.63;;;;;;;12.65;100.00;99058.91;5059381;28;20029;-71
2023/01/01 04:21:41;;;;;;;7.43;4.20;;;;;;;12.77;100.00;99054.50;5069768;28;20084;-72
2023/01/01 04:24:06;;;;;;;9.60;4.20;;;;;;;12.82;100.00;99049.28;5067694;28;20031;-71
2023/01/01 04:26:32;;;;;;;10.45;4.07;;;;;;;12.87;100.00;99052.19;5064910;28;20115;-72
2023/01/01 04:28:57;;;;;;;7.22;3.97;;;;;;;12.90;100.00;99045.50;5021174;28;20036;-72
2023/01/01 04:31:22;;;;;;;9.25;4.07;;;;;;;12.96;100.00;99043.81;5040333;28;20649;-72
2023/01/01 04:33:52;;;;;;;8.25;3.53;;;;;;;12.90;100.00;99029.22;5041217;28;20043;-72
2023/01/01 04:36:18;;;;;;;7.43;3.45;;;;;;;13.13;100.00;99045.03;5052442;28;20032;-72
2023/01/01 04:38:43;;;;;;;7.90;3.85;;;;;;;12.97;100.00;99035.47;5060083;28;20422;-72
2023/01/01 04:41:08;;;;;;;8.93;3.60;;;;;;;12.99;100.00;99027.09;5052852;28;20029;-72
2023/01/01 04:43:34;;;;;;;10.13;3.50;;;;;;;13.08;100.00;99044.84;5051436;28;20024;-72
2023/01/01 04:46:01;;;;;;;8.77;4.25;;;;;;;12.87;100.00;99030.47;5056132;28;20021;-72
2023/01/01 04:48:28;;;;;;;7.20;4.22;;;;;;;12.76;100.00;99044.69;5065103;28;20021;-72
2023/01/01 04:50:58;;;;;;;10.57;4.10;;;;;;;12.63;100.00;99050.97;5045729;28;20029;-72
2023/01/01 04:53:25;;;;;;;8.20;4.10;;;;;;;12.44;100.00;99055.38;5050168;28;20575;-72
2023/01/01 04:55:50;;;;;;;8.27;3.78;;;;;;;12.30;100.00;99059.13;5031400;28;20120;-72
2023/01/01 04:58:16;;;;;;;9.02;4.00;;;;;;;12.21;100.00;99049.53;5067028;28;20032;-72
2023/01/01 05:00:42;;;;;;;8.32;4.45;;;;;;;12.17;100.00;99061.81;5093605;28;20032;-72
2023/01/01 05:03:07;;;;;;;9.80;4.25;;;;;;;12.02;100.00;99070.97;5085441;28;20431;-72
2023/01/01 05:05:33;;;;;;;7.95;4.47;;;;;;;11.86;100.00;99063.25;5071557;28;20102;-72
2023/01/01 05:07:58;;;;;;;8.07;4.38;;;;;;;11.76;100.00;99069.03;5052338;28;20021;-72
2023/01/01 05:10:23;;;;;;;9.93;3.83;;;;;;;11.72;100.00;99075.06;5050867;28;20094;-72
2023/01/01 05:12:48;;;;;;;8.88;4.68;;;;;;;11.72;100.00;99066.94;5035438;28;20021;-73
2023/01/01 05:15:14;;;;;;;6.88;4.13;;;;;;;11.76;100.00;99070.88;5067835;28;20032;-72
2023/01/01 05:17:39;;;;;;;7.75;4.60;;;;;;;11.71;100.00;99066.09;5052159;28;20108;-73
2023/01/01 05:20:05;;;;;;;8.57;4.72;;;;;;;11.58;100.00;99057.91;5056132;28;20036;-72
2023/01/01 05:22:30;;;;;;;9.88;4.63;;;;;;;11.58;100.00;99068.75;5069549;28;20707;-72
2023/01/01 05:24:55;;;;;;;9.63;4.50;;;;;;;11.70;100.00;99071.72;5028404;28;20486;-72
2023/01/01 05:27:21;;;;;;;10.70;4.28;;;;;;;11.70;100.00;99074.44;5030026;28;20032;-72
2023/01/01 05:29:46;;;;;;;13.40;4.88;;;;;;;11.70;100.00;99086.09;5044396;28;20032;-72
2023/01/01 05:32:11;;;;;;;10.45;4.78;;;;;;;11.73;100.00;99084.84;5037072;28;20052;-72
2023/01/01 05:34:37;;;;;;;8.73;4.47;;;;;;;11.74;100.00;99073.00;5047005;28;20110;-72
2023/01/01 05:37:02;;;;;;;7.97;3.85;;;;;;;11.67;100.00;99077.56;5053096;28;20054;-72
2023/01/01 05:39:27;;;;;;;9.07;4.50;;;;;;;11.69;100.00;99089.03;5029243;28;20036;-72
2023/01/01 05:41:52;;;;;;;11.10;4.63;;;;;;;11.65;100.00;99079.63;5059857;28;20029;-72
2023/01/01 05:44:18;;;;;;;7.03;3.97;;;;;;;11.67;100.00;99089.22;5043233;28;20021;-72
2023/01/01 05:46:44;;;;;;;10.23;3.90;;;;;;;11.65;100.00;99098.59;5038857;28;20030;-72
2023/01/01 05:49:11;;;;;;;10.07;4.35;;;;;;;11.51;100.00;99081.47;5047074;28;20063;-72
2023/01/01 05:51:36;;;;;;;7.03;3.20;;;;;;;11.46;100.00;99092.06;5064830;28;20078;-72
2023/01/01 05:54:02;;;;;;;7.28;4.35;;;;;;;11.38;100.00;99090.34;5051779;28;20017;-72
2023/01/01 05:56:28;;;;;;;8.18;4.18;;;;;;;11.39;100.00;99098.28;5050132;28;20033;-72
2023/01/01 05:58:54;;;;;;;7.15;3.33;;;;;;;11.24;100.00;99086.75;5054424;28;20037;-72
2023/01/01 06:01:25;;;;;;;8.43;3.67;;;;;;;11.41;100.00;99106.22;5064721;28;20036;-72
2023/01/01 06:03:52;;;;;;;9.77;3.78;;;;;;;11.37;100.00;99103.06;5030365;28;20155;-72
2023/01/01 06:06:21;;;;;;;9.50;3.97;;;;;;;11.34;100.00;99102.63;5039882;28;20037;-72
2023/01/01 06:08:56;;;;;;;8.18;4.20;;;;;;;11.28;100.00;99106.97;5028609;28;20494;-72
2023/01/01 06:11:23;;;;;;;9.85;4.05;;;;;;;11.18;100.00;99101.91;5045617;28;20056;-72
2023/01/01 06:13:55;;;;;;;8.45;4.30;;;;;;;11.11;100.00;99090.22;5033382;28;20405;-72
2023/01/01 06:16:20;;;;;;;8.05;4.22;;;;;;;11.15;100.00;99113.16;5051021;28;20039;-72
2023/01/01 06:18:46;;;;;;;8.43;4.18;;;;;;;11.12;100.00;99118.97;5054856;28;20029;-72
2023/01/01 06:21:16;;;;;;;12.90;4.85;;;;;;;11.00;100.00;99122.44;5051455;28;20064;-72
2023/01/01 06:23:42;;;;;;;8.48;4.22;;;;;;;10.93;100.00;99125.09;5030053;28;20017;-72
2023/01/01 06:26:16;;;;;;;8.00;4.55;;;;;;;10.92;100.00;99118.00;5053931;28;20112;-72
2023/01/01 06:28:42;;;;;;;9.90;4.68;;;;;;;10.86;100.00;99126.91;5041540;28;20119;-72
2023/01/01 06:31:10;;;;;;;9.70;4.28;;;;;;;10.87;100.00;99123.16;5014712;28;20048;-72
2023/01/01 06:33:36;;;;;;;7.63;3.97;;;;;;;10.80;100.00;99122.31;5045600;28;20020;-72
2023/01/01 06:36:04;;;;;;;9.00;3.80;;;;;;;10.89;100.00;99129.22;5069022;28;20101;-72
2023/01/01 06:38:31;;;;;;;7.55;4.50;;;;;;;10.88;100.00;99133.81;5061488;28;20025;-72
2023/01/01 06:40:58;;;;;;;7.95;4.00;;;;;;;10.86;100.00;99132.34;5036310;28;20163;-72
2023/01/01 06:43:24;;;;;;;8.68;3.58;;;;;;;10.81;100.00;99115.84;5060565;28;20020;-72
2023/01/01 06:46:17;;;;;;;8.48;4.38;;;;;;;11.06;100.00;99137.91;5067468;28;20440;-72
2023/01/01 06:48:44;;;;;;;8.20;3.83;;;;;;;11.08;100.00;99133.97;5050549;28;20021;-72
2023/01/01 06:51:12;;;;;;;6.22;3.25;;;;;;;11.09;100.00;99127.50;5025945;28;20099;-72
2023/01/01 06:53:38;;;;;;;9.18;3.70;;;;;;;11.17;100.00;99131.91;5040085;28;20022;-72
2023/01/01 06:56:04;;;;;;;7.85;3.67;;;;;;;11.14;100.00;99127.75;5034321;28;20105;-72
2023/01/01 06:58:29;;;;;;;7.45;3.30;;;;;;;11.12;100.00;99131.69;5028216;28;20029;-72
2023/01/01 07:01:03;;;;;;;7.75;3.72;;;;;;;11.10;100.00;99131.03;5042480;28;20977;-72
2023/01/01 07:03:28;;;;;;;5.53;3.35;;;;;;;11.12;100.00;99129.81;5049669;28;20029;-72
2023/01/01 07:05:54;;;;;;;6.40;3.08;;;;;;;11.22;100.00;99142.16;5051510;28;20031;-72
2023/01/01 07:08:19;;;;;;;6.32;3.05;;;;;;;11.21;100.00;99130.47;5047774;28;20032;-72
2023/01/01 07:10:44;;;;;;;5.93;3.20;;;;;;;11.27;100.00;99137.81;5044687;28;20462;-71
2023/01/01 07:13:09;;;;;;;5.38;3.00;;;;;;;11.44;100.00;99138.31;5028470;28;20031;-72
2023/01/01 07:15:35;;;;;;;9.63;2.92;;;;;;;11.47;100.00;99137.91;5027921;28;20074;-72
2023/01/01 07:18:00;;;;;;;7.03;3.63;;;;;;;11.48;100.00;99144.19;5048352;28;20031;-72
2023/01/01 07:20:25;;;;;;;9.32;3.15;;;;;;;11.48;100.00;99150.44;5063248;28;20099;-72
2023/01/01 07:22:51;;;;;;;7.45;2.55;;;;;;;11.50;100.00;99155.63;5049605;28;20028;-72
2023/01/01 07:25:16;;;;;;;5.20;2.90;;;;;;;11.54;100.00;99146.91;5038779;28;20061;-72
2023/01/01 07:27:41;;;;;;;6.65;2.70;;;;;;;11.62;100.00;99159.47;5052670;28;20029;-72
2023/01/01 07:30:08;;;;;;;8.45;2.90;;;;;;;11.51;100.00;99141.91;5062096;28;20431;-72
2023/01/01 07:32:33;;;;;;;7.07;3.08;;;;;;;11.52;100.00;99151.69;5050007;28;20179;-72
2023/01/01 07:34:59;;;;;;;7.75;3.83;;;;;;;11.57;100.00;99170.06;5045121;28;20067;-72
2023/01/01 07:37:25;;;;;;;5.57;3.30;;;;;;;11.53;100.00;99169.63;5053306;28;20040;-72
2023/01/01 07:39:50;;;;;;;7.28;3.03;;;;;;;11.52;100.00;99183.38;5041198;28;20079;-72
2023/01/01 07:42:16;;;;;;;6.72;3.53;;;;;;;11.50;100.00;99175.47;5017771;28;20025;-72
2023/01/01 07:44:41;;;;;;;4.32;2.75;;;;;;;11.37;100.00;99161.81;5052908;28;20032;-72
2023/01/01 07:47:33;;;;;;;9.73;4.30;;;;;;;11.52;100.00;99192.34;5052348;28;20052;-72
2023/01/01 07:49:58;;;;;;;10.35;5.32;;;;;;;11.49;100.00;99189.19;5025190;28;20036;-73
2023/01/01 07:52:23;;;;;;;9.27;5.10;;;;;;;11.46;100.00;99185.00;5035574;28;20025;-73
2023/01/01 07:54:49;;;;;;;7.38;4.25;;;;;;;11.65;100.00;99198.88;5034028;28;20029;-73
2023/01/01 07:57:14;;;;;;;5.43;2.72;;;;;;;11.69;100.00;99186.59;5046437;28;20482;-73
2023/01/01 07:59:40;;;;;;;5.63;2.88;;;;;;;11.83;100.00;99197.28;5047197;28;20025;-73
2023/01/01 08:02:05;;;;;;;6.45;3.00;;;;;;;11.92;100.00;99194.44;5032079;28;20386;-73
2023/01/01 08:04:30;;;;;;;7.32;3.20;;;;;;;12.01;100.00;99207.63;5037176;28;20543;-73
2023/01/01 08:06:56;;;;;;;7.03;3.28;;;;;;;12.04;100.00;99199.06;5034952;28;20497;-73
2023/01/01 08:09:21;;;;;;;4.90;2.72;;;;;;;12.04;100.00;99192.81;5047369;28;20025;-73
2023/01/01 08:11:46;;;;;;;5.70;2.83;;;;;;;12.18;100.00;99204.53;5039422;28;20026;-72
2023/01/01 08:14:12;;;;;;;7.47;2.50;;;;;;;12.17;100.00;99213.72;5015637;28;20017;-73
2023/01/01 08:16:38;;;;;;;7.55;2.35;;;;;;;12.17;100.00;99201.00;5039220;28;20441;-72
2023/01/01 08:19:03;;;;;;;5.63;2.35;;;;;;;12.17;100.00;99216.44;5042557;28;20025;-73
2023/01/01 08:21:29;;;;;;;4.90;2.67;;;;;;;12.19;100.00;99214.38;5035295;28;20645;-73
2023/01/01 08:23:55;;;;;;;5.47;2.60;;;;;;;12.16;100.00;99214.78;5015542;28;20033;-73
2023/01/01 08:26:29;;;;;;;5.72;3.20;;;;;;;12.13;100.00;99212.44;5018222;28;20033;-73
2023/01/01 08:28:55;;;;;;;5.28;2.90;;;;;;;12.20;100.00;99221.44;5051084;28;20028;-72
2023/01/01 08:31:20;;;;;;;6.68;2.50;;;;;;;12.14;100.00;99216.84;5029618;28;20021;-72
2023/01/01 08:33:45;;;;;;;5.60;2.70;;;;;;;12.20;100.00;99213.31;5046471;28;20487;-72
2023/01/01 08:36:12;;;;;;;8.48;2.63;;;;;;;12.29;100.00;99236.53;5033353;28;20022;-73
2023/01/01 08:38:38;;;;;;;6.15;2.55;;;;;;;12.33;100.00;99216.06;5045578;28;20040;-73
2023/01/01 08:41:03;;;;;;;4.90;2.55;;;;;;;12.46;100.00;99229.66;5062934;28;20033;-73
2023/01/01 08:43:28;;;;;;;7.85;2.75;;;;;;;12.48;100.00;99210.47;5016446;28;20034;-73
2023/01/01 08:45:54;;;;;;;8.52;2.63;;;;;;;12.69;100.00;99237.44;5033104;28;20037;-72
2023/01/01 08:48:19;;;;;;;4.32;2.20;;;;;;;12.80;100.00;99232.44;5024222;28;20052;-81
2023/01/01 08:50:58;;;;;;;4.70;2.60;;;;;;;12.97;100.00;99236.44;5036617;28;20441;-79
2023/01/01 08:53:25;;;;;;;6.53;2.53;;;;;;;13.04;100.00;99237.25;5032134;28;20020;-80
2023/01/01 08:56:08;;;;;;;5.63;2.42;;;;;;;13.16;100.00;99238.31;5030000;28;20181;-80
2023/01/01 08:58:39;;;;;;;3.70;2.17;;;;;;;13.17;100.00;99250.00;5027397;28;20052;-80
2023/01/01 09:01:07;;;;;;;5.88;2.58;;;;;;;13.19;100.00;99249.81;5032605;28;20441;-80
2023/01/01 09:03:34;;;;;;;6.30;3.00;;;;;;;13.02;100.00;99205.91;5053990;28;20487;-81
2023/01/01 09:06:00;;;;;;;4.35;2.20;;;;;;;13.47;100.00;99245.00;5041706;28;20275;-79
2023/01/01 09:08:26;;;;;;;4.88;2.63;;;;;;;13.86;100.00;99231.53;5033809;28;20029;-81
2023/01/01 09:10:52;;;;;;;5.68;3.00;;;;;;;14.77;100.00;99228.59;5054255;28;20059;-80
2023/01/01 09:13:20;;;;;;;9.35;3.25;;;;;;;15.71;100.00;99226.75;5042617;28;20021;-81
2023/01/01 09:15:46;;;;;;;13.85;3.83;;;;;;;16.44;100.00;99214.09;5045542;28;20072;-80
2023/01/01 09:18:12;;;;;;;7.75;3.28;;;;;;;17.27;100.00;99237.84;5054813;28;20037;-80
2023/01/01 09:20:38;;;;;;;6.32;3.00;;;;;;;18.26;96.01;99214.31;5047509;28;20445;-78
2023/01/01 09:23:04;;;;;;;7.05;3.05;;;;;;;18.87;87.98;99236.63;5056245;28;20025;-75
2023/01/01 09:25:30;;;;;;;7.47;3.33;;;;;;;18.87;84.53;99217.44;5104613;22;20042;-73
2023/01/01 09:28:00;;;;;;;7.45;3.17;;;;;;;18.70;82.94;99236.53;5041237;28;20022;-76
2023/01/01 09:30:25;;;;;;;5.55;2.97;;;;;;;18.58;86.77;99228.38;5045359;28;20021;-77
2023/01/01 09:32:50;;;;;;;7.22;3.03;;;;;;;18.51;84.61;99222.22;5048045;28;20021;-76
2023/01/01 09:35:16;;;;;;;4.10;2.63;;;;;;;18.89;82.46;99223.47;5036859;28;20025;-74
2023/01/01 09:37:41;;;;;;;4.03;2.70;;;;;;;19.11;80.43;99229.06;5015160;28;20036;-81
2023/01/01 09:40:08;;;;;;;4.35;2.25;;;;;;;19.57;73.96;99219.66;5028032;28;20021;-78
2023/01/01 09:42:44;;;;;;;8.52;3.15;;;;;;;19.43;75.71;99232.88;5037792;28;20036;-82
2023/01/01 09:45:30;;;;;;;7.93;3.00;;;;;;;19.80;75.17;99253.50;5035702;28;20478;-77
2023/01/01 09:48:02;;;;;;;6.72;2.45;;;;;;;19.55;73.53;99245.69;5010491;28;20029;-74
2023/01/01 09:50:38;;;;;;;7.47;2.70;;;;;;;19.69;73.13;99242.34;5037170;28;20114;-73
2023/01/01 09:53:11;;;;;;;5.03;2.40;;;;;;;20.43;69.03;99234.78;5027576;28;20054;-74
2023/01/01 09:56:01;;;;;;;5.20;2.15;;;;;;;20.78;68.13;99243.47;5021397;28;20020;-72
2023/01/01 09:58:31;;;;;;;5.18;2.60;;;;;;;21.32;65.36;99248.06;5021453;28;20073;-74
2023/01/01 10:01:04;;;;;;;4.82;2.40;;;;;;;22.00;62.57;99231.75;5029469;28;20031;-74
2023/01/01 10:03:59;;;;;;;6.47;2.50;;;;;;;22.94;58.78;99254.69;5002210;28;20052;-73
2023/01/01 10:06:28;;;;;;;4.90;2.47;;;;;;;23.98;55.47;99242.56;5049188;28;20485;-73
2023/01/01 10:09:13;;;;;;;4.20;2.67;;;;;;;24.83;53.42;99244.41;5018352;28;20025;-72
2023/01/01 10:11:56;;;;;;;6.70;3.03;;;;;;;24.12;53.04;99251.06;5033637;28;20017;-75
2023/01/01 10:14:35;;;;;;;5.22;2.78;;;;;;;24.04;53.04;99241.44;5006387;28;20072;-74
2023/01/01 10:17:05;;;;;;;3.75;2.33;;;;;;;23.77;52.67;99223.25;5022871;28;20041;-74
2023/01/01 10:19:42;;;;;;;5.88;2.40;;;;;;;21.19;59.48;99241.09;5044501;28;20074;-74
2023/01/01 10:22:20;;;;;;;6.00;2.90;;;;;;;19.70;64.70;99234.94;5033706;28;20060;-73
2023/01/01 10:24:55;;;;;;;3.75;2.30;;;;;;;19.34;67.47;99228.91;5022598;28;20564;-74
2023/01/01 10:27:34;;;;;;;6.32;2.70;;;;;;;20.13;66.14;99233.34;5031934;28;20029;-74
2023/01/01 10:30:01;;;;;;;;;;;;;;;20.95;62.89;99242.53;5018576;28;20025;-74
2023/01/01 10:32:37;;;;;;;4.28;2.67;;;;;;;21.34;61.96;99243.13;5019775;28;19913;-74
2023/01/01 10:35:12;;;;;;;4.45;2.85;;;;;;;21.39;61.06;99236.88;5040772;28;20163;-74
2023/01/01 10:37:38;;;;;;;6.97;2.80;;;;;;;22.59;57.92;99224.31;5014934;28;20042;-74
2023/01/01 10:40:15;;;;;;;8.25;2.70;;;;;;;23.01;56.02;99229.66;5026137;28;20058;-74
2023/01/01 10:42:40;;;;;;;4.80;2.50;;;;;;;23.37;55.56;99230.47;5023967;28;20030;-73
2023/01/01 10:45:13;;;;;;;5.93;3.00;;;;;;;23.20;55.02;99235.44;5013572;28;20074;-74
2023/01/01 10:47:59;;;;;;;5.75;3.05;;;;;;;23.26;55.00;99248.13;5025519;28;20493;-74
2023/01/01 10:50:43;;;;;;;7.05;2.72;;;;;;;23.75;52.95;99231.00;5034406;28;20029;-73
2023/01/01 10:53:30;;;;;;;6.28;3.13;;;;;;;24.33;51.69;99244.34;5018240;28;20022;-74
2023/01/01 10:56:07;;;;;;;9.05;4.32;;;;;;;24.91;50.74;99246.56;5031409;28;20025;-74
2023/01/01 10:58:39;;;;;;;4.45;2.45;;;;;;;24.99;50.60;99237.63;5006096;28;20026;-74
2023/01/01 11:01:10;;;;;;;5.38;2.83;;;;;;;24.47;51.13;99239.06;5030632;28;20033;-72
2023/01/01 11:03:36;;;;;;;8.82;2.55;;;;;;;23.22;51.80;99236.00;5027332;28;20059;-75
2023/01/01 11:06:21;;;;;;;7.50;3.60;;;;;;;24.36;50.88;99235.47;5043985;28;20458;-75
2023/01/01 11:08:52;;;;;;;4.53;2.40;;;;;;;22.75;52.87;99214.94;5000845;28;20055;-73
2023/01/01 11:11:22;;;;;;;4.88;2.40;;;;;;;22.26;54.79;99205.16;5029501;28;20083;-74
2023/01/01 11:13:53;;;;;;;10.38;2.50;;;;;;;21.97;55.78;99201.16;5004448;28;20026;-74
2023/01/01 11:16:19;;;;;;;5.20;2.10;;;;;;;21.94;56.13;99212.72;5037461;28;20028;-73
2023/01/01 11:18:45;;;;;;;4.95;2.47;;;;;;;21.61;56.77;99199.06;5033692;28;20023;-72
2023/01/01 11:21:19;;;;;;;5.07;2.20;;;;;;;22.16;56.17;99176.72;5017416;28;20065;-72
2023/01/01 11:23:44;;;;;;;2.25;1.67;;;;;;;22.53;54.84;99185.69;5029159;28;20021;-73
2023/01/01 11:26:19;;;;;;;7.15;2.40;;;;;;;22.42;55.00;99203.28;5021285;28;20060;-73
2023/01/01 11:29:04;;;;;;;5.57;2.33;;;;;;;23.26;54.10;99194.84;5022976;28;20029;-73
2023/01/01 11:31:38;;;;;;;6.82;2.28;;;;;;;22.10;55.00;99184.94;5024660;28;20550;-73
2023/01/01 11:34:29;;;;;;;4.97;2.40;;;;;;;21.69;56.50;99178.41;5036173;28;20021;-73
2023/01/01 11:37:22;;;;;;;4.82;2.00;;;;;;;21.86;56.79;99179.06;5022125;28;20025;-73
2023/01/01 11:39:51;;;;;;;6.43;2.50;;;;;;;21.77;56.69;99164.16;5018151;28;20045;-71
2023/01/01 11:42:34;;;;;;;5.25;2.40;;;;;;;22.04;56.35;99169.50;5035447;28;20036;-73